Time;durP1;ratioP1;P1;durP2;ratioP2;P2;SDS_P1;SDS_P2;PMS_P1;PMS_P2;Temp;Humidity;BMP_temperature;BMP_pressure;BME280_temperature;BME280_humidity;BME280_pressure;Samples;Min_cycle;Max_cycle;Signal;HPM_P1;HPM_P2
2023/07/05 00:13:29;;;;;;;6.80;6.07;;;19.40;99.90;;;;;;4782081;29;20541;-78
2023/07/05 01:10:36;;;;;;;5.20;3.47;;;19.40;99.90;;;;;;4790178;29;21110;-76
2023/07/05 01:13:45;;;;;;;3.03;2.73;;;19.40;99.90;;;;;;4913370;28;20505;-78
2023/07/05 01:16:42;;;;;;;3.83;3.10;;;19.40;99.90;;;;;;5054576;28;20456;-76
2023/07/05 01:20:04;;;;;;;2.90;2.57;;;19.40;99.90;;;;;;5077694;28;20532;-77
2023/07/05 01:23:29;;;;;;;5.70;3.13;;;19.50;99.90;;;;;;5044252;28;20477;-75
2023/07/05 01:30:17;;;;;;;3.00;2.70;;;19.60;99.90;;;;;;4957577;28;20507;-77
2023/07/05 01:40:11;;;;;;;2.60;2.40;;;19.30;99.90;;;;;;4898026;28;20446;-77
2023/07/05 01:43:22;;;;;;;2.90;2.70;;;19.30;99.90;;;;;;4974320;28;20481;-77
2023/07/05 02:03:56;;;;;;;3.23;2.93;;;19.10;99.90;;;;;;4893334;29;20500;-77
2023/07/05 02:10:16;;;;;;;2.60;2.40;;;19.10;99.90;;;;;;5003395;28;20442;-76
2023/07/05 02:13:32;;;;;;;2.33;2.13;;;19.10;99.90;;;;;;5025735;28;20455;-76
2023/07/05 02:16:19;;;;;;;2.20;2.10;;;19.10;99.90;;;;;;5058044;28;20480;-77
2023/07/05 02:19:54;;;;;;;2.47;2.37;;;19.10;99.90;;;;;;5057543;28;20486;-75
2023/07/05 02:23:23;;;;;;;2.60;2.30;;;19.10;99.90;;;;;;5079788;28;20501;-75
2023/07/05 02:50:20;;;;;;;2.47;2.30;;;18.90;99.90;;;;;;4914496;28;20492;-76
2023/07/05 03:00:36;;;;;;;2.50;2.30;;;18.80;99.90;;;;;;4968915;28;20464;-75
2023/07/05 03:31:11;;;;;;;2.87;2.20;;;18.60;99.90;;;;;;4952689;29;20442;-78
2023/07/05 03:41:31;;;;;;;2.53;2.33;;;18.60;99.90;;;;;;4911910;29;20463;-77
2023/07/05 03:44:32;;;;;;;3.07;2.30;;;18.70;99.90;;;;;;4978133;28;20582;-78
2023/07/05 03:47:08;;;;;;;2.70;2.50;;;18.70;99.90;;;;;;5087485;28;20431;-77
2023/07/05 03:49:49;;;;;;;2.70;2.50;;;18.70;99.90;;;;;;5087335;28;20497;-77
2023/07/05 03:52:33;;;;;;;2.37;2.20;;;18.70;99.90;;;;;;5085895;28;20475;-77
2023/07/05 03:55:57;;;;;;;3.20;2.30;;;18.70;99.90;;;;;;5083687;28;20467;-77
2023/07/05 03:58:27;;;;;;;2.77;2.57;;;18.60;99.90;;;;;;5080579;28;20456;-77
2023/07/05 04:01:29;;;;;;;2.80;2.47;;;18.60;99.90;;;;;;5083485;28;20455;-76
2023/07/05 04:04:38;;;;;;;2.83;2.30;;;18.60;99.90;;;;;;5084193;28;20490;-76
2023/07/05 04:11:02;;;;;;;2.20;2.10;;;18.60;99.90;;;;;;5074351;28;20547;-75
2023/07/05 04:45:35;;;;;;;2.70;2.47;;;18.20;99.90;;;;;;4964106;28;20465;-76
2023/07/05 04:48:11;;;;;;;2.60;2.40;;;18.20;99.90;;;;;;5002111;28;20550;-77
2023/07/05 04:50:45;;;;;;;3.50;2.20;;;18.30;99.90;;;;;;4996688;28;20546;-75
2023/07/05 04:53:35;;;;;;;2.50;2.30;;;18.30;99.90;;;;;;5038789;28;20557;-76
2023/07/05 04:56:13;;;;;;;2.50;2.30;;;18.30;99.90;;;;;;5064294;28;20451;-75
2023/07/05 04:59:56;;;;;;;;;;;;;;;;;;;;;
2023/07/05 05:05:50;;;;;;;8.73;2.40;;;18.40;99.90;;;;;;5008783;28;20445;-77
2023/07/05 05:08:19;;;;;;;3.00;2.80;;;18.50;99.90;;;;;;5058465;28;20417;-75
2023/07/05 05:10:50;;;;;;;7.00;2.77;;;18.50;99.90;;;;;;5058520;28;20447;-76
2023/07/05 05:13:19;;;;;;;2.47;2.27;;;18.60;99.90;;;;;;5059877;28;20468;-76
2023/07/05 05:15:57;;;;;;;3.87;2.30;;;18.60;99.90;;;;;;5058383;28;20435;-79
2023/07/05 05:18:32;;;;;;;3.77;2.23;;;18.60;99.90;;;;;;5062541;28;20550;-77
2023/07/05 05:21:03;;;;;;;2.67;2.47;;;18.60;99.90;;;;;;5072048;28;20478;-78
2023/07/05 05:23:31;;;;;;;2.07;1.93;;;18.70;99.90;;;;;;5083398;28;20545;-76
2023/07/05 05:26:00;;;;;;;4.80;2.47;;;18.80;99.90;;;;;;5086629;28;20456;-77
2023/07/05 05:28:29;;;;;;;2.33;2.13;;;18.80;99.90;;;;;;5085611;28;20462;-75
2023/07/05 05:31:04;;;;;;;6.43;2.33;;;18.90;99.90;;;;;;5086874;28;20449;-78
2023/07/05 05:33:35;;;;;;;2.83;2.30;;;19.10;99.90;;;;;;5083238;28;20561;-76
2023/07/05 05:36:05;;;;;;;3.80;2.40;;;19.10;99.90;;;;;;5084435;28;20987;-77
2023/07/05 05:38:35;;;;;;;3.77;2.70;;;19.10;99.90;;;;;;5083638;28;20482;-77
2023/07/05 05:41:10;;;;;;;2.50;2.30;;;19.10;99.90;;;;;;5070060;28;20463;-76
2023/07/05 05:46:56;;;;;;;3.77;2.47;;;19.10;99.90;;;;;;5101896;28;20489;-76
2023/07/05 05:52:51;;;;;;;4.30;2.63;;;19.20;99.90;;;;;;5058435;28;20435;-75
2023/07/05 05:55:41;;;;;;;2.50;2.30;;;19.30;99.90;;;;;;5083776;28;20470;-76
2023/07/05 06:04:40;;;;;;;2.93;2.73;;;19.70;99.90;;;;;;5080048;28;20499;-77
2023/07/05 06:14:19;;;;;;;2.93;2.73;;;20.10;99.90;;;;;;5055467;28;20472;-76
2023/07/05 06:20:34;;;;;;;3.33;2.30;;;20.20;99.90;;;;;;5079820;28;20474;-76
2023/07/05 06:26:49;;;;;;;3.27;2.30;;;20.40;99.90;;;;;;4983277;28;20478;-76
2023/07/05 06:29:19;;;;;;;2.67;2.47;;;20.60;99.90;;;;;;5060579;28;20443;-75
2023/07/05 06:31:57;;;;;;;3.30;2.73;;;20.60;99.90;;;;;;5065081;28;20483;-76
2023/07/05 06:34:28;;;;;;;3.10;2.80;;;20.70;99.90;;;;;;5066836;28;20479;-77
2023/07/05 06:36:57;;;;;;;2.77;2.50;;;20.80;99.90;;;;;;5079769;28;20466;-76
2023/07/05 06:39:29;;;;;;;4.83;2.40;;;20.90;99.90;;;;;;5086621;28;20436;-76
2023/07/05 06:42:23;;;;;;;3.50;2.30;;;20.60;99.90;;;;;;5086242;28;20516;-75
2023/07/05 06:44:55;;;;;;;3.30;2.03;;;20.40;99.90;;;;;;5085046;28;21120;-76
2023/07/05 06:47:27;;;;;;;5.23;2.40;;;20.10;99.90;;;;;;5088592;28;20456;-76
2023/07/05 06:49:58;;;;;;;2.07;1.97;;;19.50;99.90;;;;;;5084616;28;20477;-76
2023/07/05 06:52:52;;;;;;;2.47;2.17;;;19.20;99.90;;;;;;5086713;28;20508;-77
2023/07/05 06:55:56;;;;;;;2.50;2.30;;;18.80;99.90;;;;;;5086632;28;20466;-76
2023/07/05 06:58:27;;;;;;;5.20;2.67;;;18.80;99.90;;;;;;5083871;28;20460;-78
2023/07/05 07:01:01;;;;;;;4.97;2.73;;;18.70;99.90;;;;;;5082477;28;20456;-78
2023/07/05 07:09:28;;;;;;;3.50;2.77;;;18.40;99.90;;;;;;5039938;28;20467;-77
2023/07/05 07:12:18;;;;;;;3.10;2.80;;;18.50;99.90;;;;;;5079296;28;20500;-76
2023/07/05 07:15:06;;;;;;;3.63;2.70;;;18.50;99.90;;;;;;5084782;28;20472;-77
2023/07/05 07:17:42;;;;;;;6.90;2.63;;;18.60;99.90;;;;;;5086463;28;20447;-78
2023/07/05 07:20:11;;;;;;;3.07;2.77;;;18.70;99.90;;;;;;5085450;28;20858;-77
2023/07/05 07:22:45;;;;;;;2.83;2.63;;;18.80;99.90;;;;;;5084962;28;20478;-77
2023/07/05 07:25:19;;;;;;;2.77;2.37;;;18.70;99.90;;;;;;5084523;28;20487;-77
2023/07/05 07:27:51;;;;;;;3.10;2.83;;;18.70;99.90;;;;;;5082310;28;20554;-78
2023/07/05 07:30:47;;;;;;;4.20;2.40;;;19.00;99.90;;;;;;5082465;28;20494;-79
2023/07/05 07:33:20;;;;;;;1.90;1.80;;;19.00;99.90;;;;;;5080972;28;20471;-78
2023/07/05 07:36:00;;;;;;;2.57;2.33;;;19.00;99.90;;;;;;5079884;28;20431;-76
2023/07/05 07:38:41;;;;;;;3.40;2.10;;;19.10;99.90;;;;;;5082932;28;20801;-76
2023/07/05 07:41:26;;;;;;;3.73;2.43;;;19.00;99.90;;;;;;5083968;28;20446;-78
2023/07/05 07:43:58;;;;;;;4.23;2.70;;;19.20;99.90;;;;;;5083225;28;20566;-76
2023/07/05 07:46:29;;;;;;;2.57;1.70;;;19.40;99.90;;;;;;5083174;28;20452;-76
2023/07/05 07:48:59;;;;;;;2.83;2.40;;;19.50;99.90;;;;;;5083891;28;20476;-77
2023/07/05 07:51:29;;;;;;;2.00;1.67;;;19.60;99.90;;;;;;5082607;28;20453;-77
2023/07/05 07:53:58;;;;;;;1.40;1.30;;;19.60;99.90;;;;;;5082598;28;20490;-76
2023/07/05 07:56:27;;;;;;;5.60;2.17;;;19.30;99.90;;;;;;5079874;28;20459;-75
2023/07/05 07:59:06;;;;;;;4.03;2.30;;;19.00;99.90;;;;;;5079022;28;20456;-77
2023/07/05 08:01:39;;;;;;;2.30;2.10;;;18.90;99.90;;;;;;5079507;28;20459;-76
2023/07/05 08:04:12;;;;;;;1.90;1.80;;;18.90;99.90;;;;;;5086715;28;20482;-75
2023/07/05 08:06:45;;;;;;;1.80;1.70;;;18.70;99.90;;;;;;5086888;28;20710;-76
2023/07/05 08:09:16;;;;;;;2.77;2.50;;;18.60;99.90;;;;;;5087775;28;20430;-76
2023/07/05 08:11:47;;;;;;;3.03;2.40;;;18.50;99.90;;;;;;5084518;28;20449;-75
2023/07/05 08:14:19;;;;;;;2.40;2.20;;;18.50;99.90;;;;;;5084455;28;20466;-76
2023/07/05 08:16:50;;;;;;;2.10;2.00;;;18.40;99.90;;;;;;5082753;28;20459;-75
2023/07/05 08:19:20;;;;;;;2.00;1.90;;;18.50;99.90;;;;;;5082888;28;20443;-76
2023/07/05 08:21:49;;;;;;;2.00;1.90;;;18.30;99.90;;;;;;5083753;28;20454;-76
2023/07/05 08:24:17;;;;;;;3.13;2.20;;;18.40;99.90;;;;;;5082869;28;20489;-76
2023/07/05 08:26:46;;;;;;;2.13;2.03;;;18.50;99.90;;;;;;5083338;28;20497;-76
2023/07/05 08:29:19;;;;;;;2.40;2.20;;;18.50;99.90;;;;;;5083752;28;20458;-76
2023/07/05 08:32:01;;;;;;;2.70;2.50;;;18.30;99.90;;;;;;5081610;28;20460;-75
2023/07/05 08:34:31;;;;;;;2.60;2.40;;;18.30;99.90;;;;;;5079641;28;20567;-76
2023/07/05 08:37:03;;;;;;;2.50;2.30;;;18.30;99.90;;;;;;5079256;28;20451;-76
2023/07/05 08:39:48;;;;;;;2.60;2.37;;;18.30;99.90;;;;;;5081018;28;20473;-76
2023/07/05 08:42:32;;;;;;;2.67;2.47;;;18.30;99.90;;;;;;5078452;28;20507;-76
2023/07/05 08:45:22;;;;;;;2.60;2.33;;;18.40;99.90;;;;;;5079167;28;20497;-75
2023/07/05 08:48:01;;;;;;;2.70;2.50;;;18.40;99.90;;;;;;5078063;28;20447;-77
2023/07/05 08:50:31;;;;;;;2.40;2.20;;;18.40;99.90;;;;;;5079648;28;20568;-77
2023/07/05 08:53:03;;;;;;;3.10;2.50;;;18.50;99.90;;;;;;5078046;28;20472;-76
2023/07/05 08:55:45;;;;;;;2.90;2.33;;;18.60;99.90;;;;;;5078883;28;20449;-76
2023/07/05 08:58:21;;;;;;;3.20;3.00;;;18.70;99.90;;;;;;5079308;28;20504;-76
2023/07/05 09:00:55;;;;;;;3.83;3.17;;;18.90;99.90;;;;;;5079562;28;20458;-75
2023/07/05 09:03:28;;;;;;;3.50;3.20;;;19.00;99.90;;;;;;5078877;28;20994;-75
2023/07/05 09:06:09;;;;;;;3.40;3.10;;;18.80;99.90;;;;;;5079314;28;21027;-75
2023/07/05 09:08:48;;;;;;;3.50;3.20;;;18.80;99.90;;;;;;5078491;28;20474;-76
2023/07/05 09:11:26;;;;;;;3.53;2.80;;;19.10;99.90;;;;;;5078255;28;20500;-76
2023/07/05 09:14:31;;;;;;;3.60;3.30;;;19.30;99.90;;;;;;5075809;28;20501;-75
2023/07/05 09:17:06;;;;;;;3.43;3.00;;;19.50;99.90;;;;;;5062361;28;20461;-76
2023/07/05 09:19:49;;;;;;;2.60;2.40;;;19.40;99.90;;;;;;5077580;28;20428;-76
2023/07/05 09:22:39;;;;;;;;;;;;;;;;;;;;;
2023/07/05 09:25:12;;;;;;;4.33;2.70;;;19.70;99.90;;;;;;5077196;28;20506;-76
2023/07/05 09:27:53;;;;;;;3.10;2.90;;;19.70;99.90;;;;;;5077734;28;20467;-78
2023/07/05 09:46:49;;;;;;;3.33;3.03;;;21.70;99.90;;;;;;5013866;28;20477;-76
2023/07/05 09:49:23;;;;;;;3.40;3.10;;;21.70;99.90;;;;;;5033161;28;20461;-75
2023/07/05 09:52:04;;;;;;;3.33;3.03;;;21.80;99.90;;;;;;5066281;28;20547;-77
2023/07/05 09:54:40;;;;;;;4.23;3.10;;;21.80;99.90;;;;;;5074607;28;20469;-76
2023/07/05 09:57:28;;;;;;;3.33;3.13;;;21.90;99.90;;;;;;5074177;28;20456;-76
2023/07/05 10:05:56;;;;;;;3.53;3.23;;;22.60;99.90;;;;;;5073987;28;21003;-76
2023/07/05 10:08:26;;;;;;;3.40;3.10;;;22.90;99.90;;;;;;5073510;28;20457;-75
2023/07/05 10:10:54;;;;;;;3.30;2.63;;;22.70;99.90;;;;;;5072909;28;20828;-76
2023/07/05 10:13:29;;;;;;;3.40;3.10;;;22.10;99.90;;;;;;5072932;28;20567;-75
2023/07/05 10:16:02;;;;;;;3.57;3.27;;;21.80;99.90;;;;;;5072830;28;20432;-77
2023/07/05 10:18:34;;;;;;;4.80;3.30;;;22.10;99.90;;;;;;5072868;28;20479;-77
2023/07/05 10:21:19;;;;;;;3.37;3.17;;;22.10;99.90;;;;;;5073842;28;20452;-76
2023/07/05 10:23:48;;;;;;;3.40;3.10;;;22.50;99.90;;;;;;5075822;28;20493;-77
2023/07/05 10:26:41;;;;;;;3.17;2.97;;;22.70;99.90;;;;;;5078202;28;20556;-76
2023/07/05 10:29:12;;;;;;;3.37;3.07;;;22.70;99.90;;;;;;5069273;28;20460;-76
2023/07/05 10:31:53;;;;;;;4.27;3.73;;;23.10;99.90;;;;;;5075359;28;20453;-79
2023/07/05 10:34:29;;;;;;;2.90;2.70;;;23.10;99.90;;;;;;5076376;28;20552;-77
2023/07/05 10:36:57;;;;;;;3.60;3.30;;;23.40;99.90;;;;;;5074827;28;20523;-77
2023/07/05 10:39:30;;;;;;;3.07;2.83;;;23.30;99.90;;;;;;5074832;28;20546;-76
2023/07/05 10:41:59;;;;;;;2.80;2.60;;;23.50;99.90;;;;;;5075546;28;20465;-77
2023/07/05 10:44:36;;;;;;;3.10;2.90;;;22.90;99.90;;;;;;5076529;28;20485;-77
2023/07/05 10:47:20;;;;;;;3.10;2.80;;;23.00;99.90;;;;;;5076212;28;20460;-75
2023/07/05 10:50:04;;;;;;;2.80;2.60;;;23.30;99.90;;;;;;5075997;28;20455;-75
2023/07/05 10:52:44;;;;;;;3.23;2.93;;;24.00;99.90;;;;;;5075093;28;20431;-76
2023/07/05 10:55:31;;;;;;;3.30;3.10;;;24.00;99.90;;;;;;5074886;28;20467;-76
2023/07/05 11:01:27;;;;;;;3.77;3.47;;;23.60;99.90;;;;;;5076422;28;20444;-76
2023/07/05 11:10:57;;;;;;;3.57;3.37;;;24.30;99.90;;;;;;4963940;28;20438;-76
2023/07/05 11:13:32;;;;;;;4.23;3.90;;;23.70;99.90;;;;;;4995030;28;20465;-76
2023/07/05 11:16:03;;;;;;;3.57;3.37;;;24.10;99.90;;;;;;5054557;28;20524;-78
2023/07/05 11:18:31;;;;;;;3.63;3.33;;;24.50;99.90;;;;;;5080643;28;20459;-75
2023/07/05 11:20:59;;;;;;;3.77;3.47;;;24.30;99.90;;;;;;5080451;28;20445;-75
2023/07/05 11:24:09;;;;;;;3.50;3.30;;;24.30;99.90;;;;;;5080823;28;20469;-78
2023/07/05 11:26:44;;;;;;;3.60;3.30;;;24.30;99.90;;;;;;5018851;28;20482;-75
2023/07/05 11:29:47;;;;;;;3.83;3.43;;;24.40;99.90;;;;;;5019012;28;20796;-76
2023/07/05 11:32:16;;;;;;;5.13;2.90;;;24.80;99.90;;;;;;5058006;28;20463;-77
2023/07/05 11:34:50;;;;;;;3.63;3.33;;;24.90;99.90;;;;;;5077921;28;20467;-76
2023/07/05 11:38:05;;;;;;;3.10;2.90;;;25.10;99.00;;;;;;5079677;28;20641;-76
2023/07/05 11:41:06;;;;;;;4.83;3.20;;;25.00;98.90;;;;;;5080798;28;20440;-75
2023/07/05 11:43:41;;;;;;;2.67;2.47;;;25.30;95.50;;;;;;5081110;28;20494;-76
2023/07/05 11:47:03;;;;;;;2.67;2.47;;;25.40;96.20;;;;;;5079612;28;20472;-76
2023/07/05 11:49:38;;;;;;;2.90;2.60;;;24.90;93.20;;;;;;5073698;28;20849;-75
2023/07/05 11:52:17;;;;;;;3.50;3.20;;;24.90;94.10;;;;;;5077531;28;20435;-77
2023/07/05 11:54:59;;;;;;;3.43;3.13;;;25.60;95.20;;;;;;5081025;28;20475;-75
2023/07/05 11:57:33;;;;;;;2.60;2.40;;;25.70;93.10;;;;;;5090386;28;20515;-75
2023/07/05 12:00:14;;;;;;;4.37;3.40;;;25.30;92.90;;;;;;5089079;28;20453;-75
2023/07/05 12:02:59;;;;;;;2.53;2.33;;;24.60;94.80;;;;;;5085984;28;20429;-75
2023/07/05 12:05:31;;;;;;;2.77;2.43;;;25.10;93.90;;;;;;5082430;28;20559;-75
2023/07/05 12:08:01;;;;;;;2.97;2.60;;;;;;;;;;5082882;28;20437;-76
2023/07/05 12:10:44;;;;;;;3.37;3.03;;;25.80;92.40;;;;;;5081145;28;20433;-76
2023/07/05 12:13:56;;;;;;;4.63;2.73;;;25.30;91.80;;;;;;5080314;28;20469;-76
2023/07/05 12:16:25;;;;;;;2.73;2.40;;;25.50;92.60;;;;;;5050743;28;20449;-74
2023/07/05 12:18:55;;;;;;;3.53;2.50;;;26.40;90.90;;;;;;5079979;28;20443;-76
2023/07/05 12:21:52;;;;;;;2.20;2.10;;;26.50;90.00;;;;;;5080345;28;20454;-75
2023/07/05 12:24:22;;;;;;;4.50;2.40;;;26.50;87.50;;;;;;5080684;28;20477;-77
2023/07/05 12:26:54;;;;;;;2.53;2.20;;;25.60;87.70;;;;;;5081230;28;20532;-75
2023/07/05 12:29:28;;;;;;;2.60;2.37;;;25.60;88.40;;;;;;5083476;28;20475;-76
2023/07/05 12:32:19;;;;;;;3.00;2.30;;;25.50;89.70;;;;;;5086621;28;20448;-77
2023/07/05 12:35:05;;;;;;;3.07;2.77;;;25.70;89.10;;;;;;5089652;28;20480;-77
2023/07/05 12:37:44;;;;;;;2.80;2.60;;;25.40;88.70;;;;;;5089333;28;20895;-76
2023/07/05 12:40:26;;;;;;;4.40;2.23;;;26.30;86.60;;;;;;5090541;28;20512;-76
2023/07/05 12:42:56;;;;;;;2.60;2.40;;;26.10;84.60;;;;;;5092335;28;20480;-77
2023/07/05 12:45:44;;;;;;;3.23;2.73;;;;;;;;;;5093105;28;20469;-76
2023/07/05 12:48:55;;;;;;;2.50;2.30;;;26.00;83.50;;;;;;5090956;28;20441;-76
2023/07/05 12:52:05;;;;;;;3.10;2.77;;;26.00;84.70;;;;;;5094604;28;20479;-76
2023/07/05 12:54:34;;;;;;;3.07;2.30;;;;;;;;;;5068126;28;20464;-76
2023/07/05 12:57:19;;;;;;;4.57;2.20;;;;;;;;;;5095120;28;20468;-77
2023/07/05 12:59:56;;;;;;;2.37;2.17;;;27.80;78.70;;;;;;5091394;28;20512;-75
2023/07/05 13:02:32;;;;;;;2.13;2.03;;;27.60;79.10;;;;;;5092086;28;20437;-77
2023/07/05 13:05:05;;;;;;;1.90;1.80;;;27.00;79.00;;;;;;5093023;28;20425;-77
2023/07/05 13:07:41;;;;;;;2.23;2.13;;;27.00;79.10;;;;;;5094580;28;20448;-76
2023/07/05 13:10:21;;;;;;;2.60;2.40;;;26.60;78.80;;;;;;5094855;28;20440;-76
2023/07/05 13:12:51;;;;;;;2.50;2.30;;;26.20;80.30;;;;;;5094090;28;20513;-76
2023/07/05 13:15:32;;;;;;;2.50;2.30;;;26.10;79.90;;;;;;5092073;28;20472;-75
2023/07/05 13:18:15;;;;;;;3.23;2.10;;;26.30;80.30;;;;;;5091385;28;20459;-75
2023/07/05 13:20:43;;;;;;;2.87;2.33;;;26.80;79.40;;;;;;5088332;28;20452;-75
2023/07/05 13:23:13;;;;;;;2.57;2.37;;;26.90;78.90;;;;;;5086658;28;20477;-77
2023/07/05 13:25:46;;;;;;;4.27;2.53;;;27.00;78.10;;;;;;5086016;28;20540;-75
2023/07/05 13:28:57;;;;;;;2.13;2.00;;;27.20;76.90;;;;;;5083781;28;20453;-77
2023/07/05 13:31:27;;;;;;;5.53;2.33;;;27.00;78.10;;;;;;5073502;28;20441;-75
2023/07/05 13:34:04;;;;;;;4.00;2.43;;;27.80;75.40;;;;;;5086365;28;20555;-76
2023/07/05 13:36:36;;;;;;;4.13;2.63;;;27.20;76.30;;;;;;5086360;28;20867;-77
2023/07/05 13:39:06;;;;;;;2.00;1.90;;;26.40;77.50;;;;;;5081317;28;20448;-75
2023/07/05 13:41:37;;;;;;;2.17;2.07;;;26.20;77.60;;;;;;5081956;28;20945;-75
2023/07/05 13:44:09;;;;;;;2.30;2.20;;;26.10;77.50;;;;;;5081079;28;20483;-75
2023/07/05 13:49:33;;;;;;;3.00;2.70;;;27.50;75.80;;;;;;5068657;28;20436;-75
2023/07/05 13:52:07;;;;;;;3.83;2.80;;;27.20;74.70;;;;;;5091139;28;20511;-78
2023/07/05 13:54:40;;;;;;;2.53;2.33;;;27.00;75.30;;;;;;5092477;28;20914;-73
2023/07/05 13:57:23;;;;;;;3.33;2.30;;;27.40;75.20;;;;;;5087321;28;20786;-75
2023/07/05 14:00:01;;;;;;;2.57;2.23;;;26.90;74.90;;;;;;5087505;28;20435;-76
2023/07/05 14:02:33;;;;;;;2.33;2.13;;;27.20;74.20;;;;;;5084131;28;20433;-76
2023/07/05 14:05:06;;;;;;;2.50;2.30;;;26.90;74.00;;;;;;5081279;28;20537;-77
2023/07/05 14:07:36;;;;;;;2.70;2.50;;;26.80;75.00;;;;;;5077390;28;20472;-77
2023/07/05 14:10:12;;;;;;;3.10;2.30;;;26.50;76.70;;;;;;5078564;28;20514;-75
2023/07/05 14:12:41;;;;;;;2.93;2.17;;;26.00;76.70;;;;;;5081445;28;20449;-77
2023/07/05 14:15:26;;;;;;;3.13;2.47;;;26.20;76.00;;;;;;5083758;28;20433;-75
2023/07/05 14:18:00;;;;;;;2.40;2.23;;;25.50;76.60;;;;;;5089757;28;20516;-76
2023/07/05 14:23:19;;;;;;;2.40;2.20;;;25.70;78.00;;;;;;5085182;28;20473;-76
2023/07/05 14:26:14;;;;;;;2.00;1.90;;;25.70;77.60;;;;;;5091300;28;20548;-75
2023/07/05 14:29:00;;;;;;;2.07;1.97;;;25.70;76.90;;;;;;5089479;28;20451;-75
2023/07/05 14:31:35;;;;;;;2.67;2.30;;;25.70;77.70;;;;;;5091070;28;20523;-77
2023/07/05 14:34:05;;;;;;;2.40;2.20;;;26.10;76.30;;;;;;5094209;28;20448;-76
2023/07/05 14:36:43;;;;;;;1.93;1.83;;;25.60;76.10;;;;;;5094288;28;20471;-76
2023/07/05 14:39:11;;;;;;;2.10;2.00;;;24.90;77.80;;;;;;5095203;28;20452;-75
2023/07/05 14:41:46;;;;;;;2.90;2.27;;;24.80;79.10;;;;;;5094487;28;20529;-75
2023/07/05 14:44:18;;;;;;;3.37;2.57;;;24.90;79.30;;;;;;5094231;28;20471;-74
2023/07/05 14:46:49;;;;;;;2.20;2.10;;;24.70;80.20;;;;;;5095036;28;20487;-75
2023/07/05 14:55:38;;;;;;;2.27;2.10;;;24.90;80.30;;;;;;5081007;28;20461;-75
2023/07/05 14:58:45;;;;;;;;;;;;;;;;;;;;;
2023/07/05 15:01:24;;;;;;;2.93;2.37;;;25.90;77.90;;;;;;5080409;28;20575;-76
2023/07/05 15:03:55;;;;;;;3.70;2.13;;;25.70;78.00;;;;;;5077442;28;20464;-76
2023/07/05 15:06:43;;;;;;;2.53;2.33;;;25.60;78.30;;;;;;5078917;28;20464;-75
2023/07/05 15:09:16;;;;;;;2.50;2.30;;;25.30;78.40;;;;;;5078200;28;20934;-75
2023/07/05 15:11:52;;;;;;;2.53;2.37;;;25.20;77.60;;;;;;5076827;28;20461;-77
2023/07/05 15:14:39;;;;;;;2.63;2.17;;;24.90;78.80;;;;;;5077195;28;20476;-75
2023/07/05 15:17:42;;;;;;;;;;;;;;;;;;;;;
2023/07/05 15:23:24;;;;;;;4.13;2.07;;;26.00;79.20;;;;;;5071658;28;21024;-76
2023/07/05 15:25:54;;;;;;;3.47;2.40;;;26.30;77.20;;;;;;5077436;28;20572;-76
2023/07/05 15:28:25;;;;;;;2.13;2.00;;;26.00;77.50;;;;;;5077272;28;20556;-75
2023/07/05 15:31:02;;;;;;;4.40;2.50;;;25.70;77.30;;;;;;5078624;28;20433;-75
2023/07/05 15:33:31;;;;;;;2.30;2.10;;;26.20;77.30;;;;;;5079486;28;20465;-76
2023/07/05 15:35:58;;;;;;;2.03;1.93;;;25.40;76.90;;;;;;5079643;28;20552;-76
2023/07/05 15:38:26;;;;;;;3.27;2.90;;;25.20;78.30;;;;;;5078640;28;20448;-76
2023/07/05 15:40:55;;;;;;;2.20;2.00;;;25.00;79.10;;;;;;5078949;28;20447;-75
2023/07/05 15:43:24;;;;;;;4.40;2.47;;;25.00;79.70;;;;;;5077376;28;20517;-78
2023/07/05 15:46:30;;;;;;;3.03;2.00;;;25.70;78.60;;;;;;5079002;28;20456;-77
2023/07/05 15:48:58;;;;;;;2.90;2.50;;;26.30;77.30;;;;;;5071302;28;20536;-77
2023/07/05 15:51:27;;;;;;;2.93;2.60;;;26.50;76.80;;;;;;5079403;28;20480;-77
2023/07/05 15:53:57;;;;;;;2.20;1.70;;;27.10;75.40;;;;;;5078534;28;20884;-77
2023/07/05 15:56:24;;;;;;;2.30;2.10;;;26.40;75.60;;;;;;5079477;28;20473;-77
2023/07/05 15:59:00;;;;;;;2.70;2.17;;;26.00;75.90;;;;;;5078307;28;20448;-76
2023/07/05 16:01:32;;;;;;;2.20;1.90;;;25.50;77.50;;;;;;5079098;28;20926;-75
2023/07/05 16:04:00;;;;;;;3.30;2.20;;;25.10;78.10;;;;;;5077230;28;20472;-76
2023/07/05 16:06:28;;;;;;;3.83;1.80;;;25.20;78.80;;;;;;5078702;28;20496;-76
2023/07/05 16:09:02;;;;;;;2.33;1.90;;;25.00;79.00;;;;;;5078207;28;20538;-76
2023/07/05 16:11:44;;;;;;;2.53;2.33;;;25.50;77.70;;;;;;5077503;28;20416;-77
2023/07/05 16:14:13;;;;;;;2.10;1.90;;;25.50;78.10;;;;;;5075376;28;20491;-76
2023/07/05 16:16:42;;;;;;;2.20;2.00;;;26.00;77.00;;;;;;5077250;28;20429;-75
2023/07/05 16:19:11;;;;;;;3.77;2.10;;;25.30;76.70;;;;;;5080913;28;20505;-75
2023/07/05 16:21:48;;;;;;;2.47;1.80;;;25.40;77.20;;;;;;5084933;28;20548;-76
2023/07/05 16:24:27;;;;;;;3.00;2.10;;;25.50;76.90;;;;;;5079653;28;20572;-76
2023/07/05 16:27:17;;;;;;;2.57;2.20;;;25.30;77.50;;;;;;5081306;28;20504;-76
2023/07/05 16:29:53;;;;;;;3.17;2.53;;;25.20;76.90;;;;;;5076659;28;20456;-76
2023/07/05 16:32:25;;;;;;;2.37;2.17;;;24.90;78.30;;;;;;5080726;28;20678;-76
2023/07/05 16:34:59;;;;;;;2.40;2.20;;;25.30;78.30;;;;;;5076820;28;20456;-77
2023/07/05 16:37:30;;;;;;;2.20;1.90;;;25.50;77.10;;;;;;5085277;28;20430;-77
2023/07/05 16:39:59;;;;;;;2.60;2.40;;;25.90;76.00;;;;;;5091770;28;20441;-76
2023/07/05 16:42:35;;;;;;;1.73;1.63;;;25.70;77.00;;;;;;5093541;28;20445;-77
2023/07/05 16:45:07;;;;;;;2.20;2.00;;;25.60;76.70;;;;;;5092164;28;20547;-77
2023/07/05 16:47:44;;;;;;;2.47;2.27;;;25.40;75.40;;;;;;5091713;28;20469;-78
2023/07/05 16:50:27;;;;;;;2.40;2.13;;;25.50;76.70;;;;;;5093299;28;20876;-76
2023/07/05 16:52:56;;;;;;;3.40;1.90;;;25.00;77.70;;;;;;5091578;28;20445;-76
2023/07/05 16:55:31;;;;;;;2.47;2.23;;;25.10;77.90;;;;;;5092399;28;20452;-77
2023/07/05 16:57:58;;;;;;;2.13;1.80;;;25.30;76.80;;;;;;5092082;28;20950;-76
2023/07/05 17:00:29;;;;;;;1.90;1.80;;;25.20;76.60;;;;;;5083576;28;20452;-76
2023/07/05 17:02:57;;;;;;;2.43;2.23;;;24.90;76.70;;;;;;5081103;28;20468;-78
2023/07/05 17:05:27;;;;;;;1.93;1.83;;;24.90;77.20;;;;;;5083654;28;20445;-77
2023/07/05 17:07:58;;;;;;;2.70;2.50;;;25.00;76.70;;;;;;5085090;28;20483;-77
2023/07/05 17:10:26;;;;;;;2.43;2.23;;;25.30;76.80;;;;;;5084906;28;20493;-76
2023/07/05 17:12:54;;;;;;;3.60;3.10;;;25.00;76.80;;;;;;5083946;28;20521;-77
2023/07/05 17:15:22;;;;;;;2.13;1.93;;;25.30;77.40;;;;;;5087437;28;20457;-77
2023/07/05 17:17:50;;;;;;;2.30;2.10;;;25.50;76.20;;;;;;5085173;28;20505;-76
2023/07/05 17:20:19;;;;;;;3.30;2.40;;;25.40;76.60;;;;;;5084456;28;20520;-76
2023/07/05 17:22:47;;;;;;;2.93;1.93;;;25.10;76.30;;;;;;5084630;28;20554;-76
2023/07/05 17:25:16;;;;;;;5.07;4.10;;;24.80;76.30;;;;;;5083655;28;20464;-76
2023/07/05 17:27:49;;;;;;;2.27;2.07;;;24.80;78.50;;;;;;5079758;28;20568;-76
2023/07/05 17:30:21;;;;;;;2.40;2.20;;;24.50;77.40;;;;;;5082344;28;20459;-76
2023/07/05 17:33:16;;;;;;;3.80;2.93;;;24.90;77.60;;;;;;5088056;28;20445;-76
2023/07/05 17:35:58;;;;;;;2.30;2.10;;;24.90;76.90;;;;;;5082277;28;20445;-75
2023/07/05 17:38:28;;;;;;;4.20;2.33;;;24.30;78.10;;;;;;5084335;28;21103;-75
2023/07/05 17:40:58;;;;;;;4.20;3.23;;;24.30;78.30;;;;;;5086259;28;20456;-76
2023/07/05 17:43:30;;;;;;;2.63;2.27;;;24.60;78.00;;;;;;5087534;28;20469;-76
2023/07/05 17:46:23;;;;;;;2.40;1.77;;;25.10;78.00;;;;;;5080854;28;20423;-74
2023/07/05 17:48:55;;;;;;;2.60;2.07;;;24.70;77.50;;;;;;5081073;28;20598;-75
2023/07/05 17:51:28;;;;;;;2.40;2.20;;;24.20;78.90;;;;;;5076650;28;20452;-75
2023/07/05 17:53:56;;;;;;;3.20;2.37;;;24.20;79.10;;;;;;5075425;28;20844;-78
2023/07/05 17:56:27;;;;;;;2.17;1.97;;;24.20;79.20;;;;;;5082554;28;20441;-77
2023/07/05 17:58:57;;;;;;;1.90;1.80;;;24.40;79.10;;;;;;5084022;28;20463;-76
2023/07/05 18:01:28;;;;;;;2.37;2.20;;;24.00;78.70;;;;;;5082835;28;20487;-76
2023/07/05 18:04:00;;;;;;;2.20;2.10;;;23.90;79.10;;;;;;5083025;28;20473;-76
2023/07/05 18:06:34;;;;;;;2.13;1.93;;;24.00;79.50;;;;;;5081085;28;20525;-77
2023/07/05 18:09:06;;;;;;;2.33;2.10;;;23.60;80.90;;;;;;5083225;28;20462;-77
2023/07/05 18:11:47;;;;;;;2.23;1.90;;;23.50;81.60;;;;;;5081423;28;20470;-77
2023/07/05 18:14:24;;;;;;;4.30;2.23;;;23.20;82.30;;;;;;5081272;28;20571;-77
2023/07/05 18:16:55;;;;;;;2.97;2.30;;;23.30;82.70;;;;;;5080312;28;20444;-76
2023/07/05 18:19:27;;;;;;;1.90;1.80;;;23.10;83.80;;;;;;5080018;28;20453;-76
2023/07/05 18:21:57;;;;;;;2.17;1.97;;;22.90;83.80;;;;;;5080178;28;20488;-77
2023/07/05 18:24:26;;;;;;;3.40;2.23;;;22.80;83.70;;;;;;5078096;28;20895;-76
2023/07/05 18:26:54;;;;;;;2.17;1.97;;;22.60;84.20;;;;;;5077510;28;21187;-75
2023/07/05 18:32:04;;;;;;;2.10;2.00;;;22.20;85.20;;;;;;5077195;28;20479;-78
2023/07/05 18:34:35;;;;;;;3.93;2.10;;;22.40;86.00;;;;;;5078558;28;20654;-78
2023/07/05 18:37:11;;;;;;;1.73;1.63;;;22.20;86.10;;;;;;5080356;28;20506;-77
2023/07/05 18:39:39;;;;;;;2.40;2.20;;;22.20;86.40;;;;;;5082378;28;20471;-77